createdAt,value
2022-08-05T00:01:36.587Z,17.57
2022-08-05T00:04:18.124Z,17.54
2022-08-05T00:06:47.202Z,17.50
2022-08-05T00:09:15.707Z,17.45
2022-08-05T00:11:49.211Z,17.42
2022-08-05T00:14:19.103Z,17.41
2022-08-05T00:16:52.548Z,17.39
2022-08-05T00:19:33.801Z,17.39
2022-08-05T00:22:12.816Z,17.43
2022-08-05T00:24:42.599Z,17.35
2022-08-05T00:27:16.766Z,17.33
2022-08-05T00:29:44.670Z,17.34
2022-08-05T00:32:14.833Z,17.34
2022-08-05T00:35:03.390Z,17.33
2022-08-05T00:37:51.115Z,17.33
2022-08-05T00:40:27.815Z,17.29
2022-08-05T00:42:58.791Z,17.27
2022-08-05T00:45:38.122Z,17.28
2022-08-05T00:48:09.507Z,17.23
2022-08-05T00:50:41.271Z,17.16
2022-08-05T00:54:00.109Z,17.11
2022-08-05T00:55:57.566Z,17.08
2022-08-05T00:58:27.174Z,17.01
2022-08-05T01:00:55.317Z,16.97
2022-08-05T01:03:23.485Z,16.96
2022-08-05T01:05:54.518Z,16.93
2022-08-05T01:08:39.899Z,16.96
2022-08-05T01:11:21.946Z,16.94
2022-08-05T01:14:00.100Z,16.85
2022-08-05T01:17:09.039Z,16.80
2022-08-05T01:20:02.026Z,16.84
2022-08-05T01:22:53.250Z,16.79
2022-08-05T01:26:21.987Z,16.74
2022-08-05T01:29:11.300Z,16.67
2022-08-05T01:31:50.118Z,16.67
2022-08-05T01:34:35.895Z,16.65
2022-08-05T01:37:24.860Z,16.65
2022-08-05T01:39:58.848Z,16.62
2022-08-05T01:42:30.212Z,16.63
2022-08-05T01:45:02.315Z,16.59
2022-08-05T01:47:39.537Z,16.59
2022-08-05T01:50:28.779Z,16.59
2022-08-05T01:53:12.122Z,16.55
2022-08-05T01:55:45.276Z,16.53
2022-08-05T01:58:16.641Z,16.51
2022-08-05T02:00:52.240Z,16.50
2022-08-05T02:03:38.316Z,16.53
2022-08-05T02:06:33.240Z,16.59
2022-08-05T02:08:58.983Z,16.59
2022-08-05T02:11:37.642Z,16.55
2022-08-05T02:14:20.943Z,16.51
2022-08-05T02:17:00.733Z,16.43
2022-08-05T02:19:27.954Z,16.45
2022-08-05T02:22:05.384Z,16.46
2022-08-05T02:24:40.817Z,16.39
2022-08-05T02:27:11.265Z,16.36
2022-08-05T02:29:59.585Z,16.33
2022-08-05T02:32:31.913Z,16.30
2022-08-05T02:35:15.206Z,16.32
2022-08-05T02:37:56.962Z,16.26
2022-08-05T02:40:27.912Z,16.22
2022-08-05T02:42:56.873Z,16.21
2022-08-05T02:45:26.491Z,16.20
2022-08-05T02:48:07.701Z,16.17
2022-08-05T02:50:43.919Z,16.15
2022-08-05T02:53:18.928Z,16.15
2022-08-05T02:56:00.008Z,16.09
2022-08-05T02:58:30.676Z,16.09
2022-08-05T03:01:02.289Z,16.10
2022-08-05T03:03:33.783Z,16.09
2022-08-05T03:06:55.670Z,16.06
2022-08-05T03:08:52.445Z,16.03
2022-08-05T03:11:55.561Z,16.01
2022-08-05T03:14:13.382Z,16.03
2022-08-05T03:16:41.283Z,16.08
2022-08-05T03:19:17.029Z,16.06
2022-08-05T03:21:56.519Z,16.04
2022-08-05T03:24:30.070Z,16.07
2022-08-05T03:27:00.111Z,16.06
2022-08-05T03:29:46.047Z,16.10
2022-08-05T03:32:19.729Z,16.08
2022-08-05T03:34:51.165Z,16.12
2022-08-05T03:37:21.144Z,16.15
2022-08-05T03:40:01.617Z,16.23
2022-08-05T03:42:32.249Z,16.29
2022-08-05T03:45:01.854Z,16.41
2022-08-05T03:47:49.366Z,16.51
2022-08-05T03:50:16.991Z,16.60
2022-08-05T03:56:01.011Z,16.73
2022-08-05T03:56:35.182Z,16.90
2022-08-05T03:59:20.365Z,17.09
2022-08-05T04:01:52.297Z,17.33
2022-08-05T04:04:22.288Z,17.69
2022-08-05T04:06:54.994Z,17.93
2022-08-05T04:09:26.414Z,18.12
2022-08-05T04:11:56.871Z,18.32
2022-08-05T04:14:29.878Z,18.52
2022-08-05T04:17:00.409Z,18.83
2022-08-05T04:19:29.773Z,19.17
2022-08-05T04:22:09.044Z,19.32
2022-08-05T04:24:52.598Z,19.73
2022-08-05T04:27:33.156Z,20.03
2022-08-05T04:30:10.132Z,20.45
2022-08-05T04:32:37.809Z,20.73
2022-08-05T04:35:17.660Z,20.84
2022-08-05T04:38:01.250Z,21.15
2022-08-05T04:40:34.377Z,21.42
2022-08-05T04:43:02.076Z,21.64
2022-08-05T04:45:47.839Z,21.80
2022-08-05T04:48:18.648Z,21.87
2022-08-05T04:51:03.813Z,22.28
2022-08-05T04:53:39.687Z,22.86
2022-08-05T04:56:33.381Z,23.34
2022-08-05T04:58:57.587Z,24.11
2022-08-05T05:02:06.057Z,24.88
2022-08-05T05:04:13.434Z,25.24
2022-08-05T05:06:44.789Z,25.86
2022-08-05T05:09:17.388Z,26.25
2022-08-05T05:11:55.534Z,26.89
2022-08-05T05:14:28.107Z,27.24
2022-08-05T05:17:01.113Z,27.05
2022-08-05T05:19:36.765Z,27.04
2022-08-05T05:22:23.510Z,27.51
2022-08-05T05:25:00.157Z,28.10
2022-08-05T05:27:41.699Z,28.50
2022-08-05T05:30:28.885Z,28.96
2022-08-05T05:33:08.918Z,29.28
2022-08-05T05:35:47.564Z,29.48
2022-08-05T05:38:22.584Z,29.57
2022-08-05T05:40:58.045Z,30.15
2022-08-05T05:43:54.645Z,30.74
2022-08-05T05:46:16.043Z,30.89
2022-08-05T05:48:48.382Z,31.55
2022-08-05T05:51:27.854Z,31.63
2022-08-05T05:53:59.505Z,32.20
2022-08-05T05:56:34.384Z,32.15
2022-08-05T05:59:07.761Z,31.88
2022-08-05T06:01:41.497Z,32.51
2022-08-05T06:04:25.189Z,32.45
2022-08-05T06:06:52.715Z,32.75
2022-08-05T06:09:25.669Z,32.91
2022-08-05T06:12:01.414Z,33.79
2022-08-05T06:14:34.609Z,34.15
2022-08-05T06:17:22.011Z,34.56
2022-08-05T06:19:56.895Z,34.94
2022-08-05T06:22:33.518Z,34.62
2022-08-05T06:25:24.495Z,35.08
2022-08-05T06:28:10.411Z,35.19
2022-08-05T06:30:41.357Z,36.19
2022-08-05T06:33:10.683Z,36.54
2022-08-05T06:36:03.626Z,36.44
2022-08-05T06:38:36.296Z,36.64
2022-08-05T06:41:07.774Z,36.38
2022-08-05T06:43:57.782Z,36.59
2022-08-05T06:46:30.147Z,36.35
2022-08-05T06:49:01.256Z,36.96
2022-08-05T06:51:30.941Z,37.45
2022-08-05T06:54:00.227Z,38.13
2022-08-05T06:56:34.346Z,38.19
2022-08-05T06:59:09.461Z,38.40
2022-08-05T07:01:40.685Z,38.79
2022-08-05T07:04:10.376Z,38.53
2022-08-05T07:06:37.922Z,39.37
2022-08-05T07:09:05.606Z,39.51
2022-08-05T07:11:36.961Z,39.08
2022-08-05T07:14:30.022Z,39.34
2022-08-05T07:18:08.338Z,39.28
2022-08-05T07:20:34.116Z,38.79
2022-08-05T07:22:38.323Z,39.72
2022-08-05T07:25:22.832Z,39.29
2022-08-05T07:27:57.276Z,39.40
2022-08-05T07:30:40.098Z,39.80
2022-08-05T07:33:15.704Z,40.05
2022-08-05T07:36:04.525Z,40.02
2022-08-05T07:38:43.748Z,39.94
2022-08-05T07:42:09.119Z,40.16
2022-08-05T07:44:14.359Z,41.21
2022-08-05T07:46:48.459Z,41.77
2022-08-05T07:49:18.572Z,40.75
2022-08-05T07:51:52.898Z,40.49
2022-08-05T07:54:31.226Z,40.23
2022-08-05T07:57:22.438Z,40.15
2022-08-05T07:59:52.469Z,40.32
2022-08-05T08:02:42.996Z,41.37
2022-08-05T08:05:17.628Z,41.96
2022-08-05T08:07:59.940Z,42.17
2022-08-05T08:10:29.198Z,42.77
2022-08-05T08:12:58.604Z,43.46
2022-08-05T08:16:35.947Z,43.42
2022-08-05T08:18:14.178Z,43.82
2022-08-05T08:21:00.009Z,44.06
2022-08-05T08:24:01.278Z,44.22
2022-08-05T08:26:16.552Z,44.12
2022-08-05T08:29:22.220Z,44.02
2022-08-05T08:31:46.342Z,43.92
2022-08-05T08:34:30.569Z,44.01
2022-08-05T08:37:03.318Z,44.48
2022-08-05T08:39:33.364Z,44.46
2022-08-05T08:42:15.258Z,44.84
2022-08-05T08:45:18.466Z,44.24
2022-08-05T08:48:07.357Z,45.13
2022-08-05T08:51:04.191Z,45.17
2022-08-05T08:53:27.600Z,43.64
2022-08-05T08:56:03.748Z,44.67
2022-08-05T08:58:37.678Z,44.93
2022-08-05T09:01:16.252Z,44.34
2022-08-05T09:03:57.594Z,44.64
2022-08-05T09:06:29.600Z,44.73
2022-08-05T09:09:00.661Z,44.02
2022-08-05T09:11:51.346Z,45.36
2022-08-05T09:14:56.816Z,46.07
2022-08-05T09:17:40.231Z,46.55
2022-08-05T09:20:02.436Z,45.93
2022-08-05T09:23:19.108Z,46.51
2022-08-05T09:26:03.110Z,45.05
2022-08-05T09:28:34.051Z,43.96
2022-08-05T09:31:23.000Z,45.27
2022-08-05T09:33:59.658Z,45.86
2022-08-05T09:36:45.661Z,45.91
2022-08-05T09:39:41.167Z,45.61
2022-08-05T09:42:24.002Z,46.04
2022-08-05T09:44:57.400Z,46.32
2022-08-05T09:47:47.978Z,46.17
2022-08-05T09:50:38.199Z,45.79
2022-08-05T09:53:08.734Z,44.95
2022-08-05T09:55:58.453Z,45.94
2022-08-05T09:58:26.079Z,46.06
2022-08-05T10:01:15.421Z,45.54
2022-08-05T10:04:12.988Z,45.29
2022-08-05T10:06:59.380Z,44.44
2022-08-05T10:09:29.655Z,43.40
2022-08-05T10:12:18.882Z,43.98
2022-08-05T10:15:17.360Z,43.48
2022-08-05T10:18:17.438Z,43.30
2022-08-05T10:20:58.014Z,43.98
2022-08-05T10:23:59.345Z,43.15
2022-08-05T10:26:32.425Z,44.27
2022-08-05T10:29:01.306Z,45.05
2022-08-05T10:32:54.990Z,45.14
2022-08-05T10:34:16.978Z,44.28
2022-08-05T10:36:45.215Z,44.39
2022-08-05T10:39:25.147Z,44.18
2022-08-05T10:42:18.810Z,43.71
2022-08-05T10:44:59.964Z,43.37
2022-08-05T10:47:36.706Z,42.74
2022-08-05T10:50:32.318Z,42.83
2022-08-05T10:53:01.796Z,42.77
2022-08-05T10:55:38.583Z,42.44
2022-08-05T10:58:20.629Z,42.64
2022-08-05T11:00:48.560Z,42.62
2022-08-05T11:03:26.681Z,41.83
2022-08-05T11:06:15.834Z,41.63
2022-08-05T11:09:18.908Z,41.57
2022-08-05T11:11:59.880Z,41.39
2022-08-05T11:15:01.026Z,40.89
2022-08-05T11:17:57.163Z,40.85
2022-08-05T11:20:43.675Z,40.83
2022-08-05T11:24:04.264Z,40.67
2022-08-05T11:26:43.408Z,40.40
2022-08-05T11:29:36.003Z,39.50
2022-08-05T11:32:28.563Z,39.26
2022-08-05T11:34:57.727Z,38.89
2022-08-05T11:38:37.206Z,38.77
2022-08-05T11:41:34.758Z,38.01
2022-08-05T11:44:05.994Z,37.84
2022-08-05T11:46:58.711Z,36.64
2022-08-05T11:49:36.377Z,36.31
2022-08-05T11:52:08.788Z,36.34
2022-08-05T11:54:41.388Z,36.13
2022-08-05T11:57:25.024Z,35.74
2022-08-05T11:59:54.577Z,35.34
2022-08-05T12:02:36.097Z,35.13
2022-08-05T12:05:07.360Z,35.08
2022-08-05T12:08:07.282Z,35.11
2022-08-05T12:10:42.859Z,34.91
2022-08-05T12:13:27.935Z,34.82
2022-08-05T12:16:17.675Z,34.95
2022-08-05T12:18:49.608Z,34.91
2022-08-05T12:21:39.077Z,34.89
2022-08-05T12:24:17.194Z,34.78
2022-08-05T12:26:52.841Z,34.53
2022-08-05T12:29:27.085Z,34.46
2022-08-05T12:31:57.757Z,34.50
2022-08-05T12:34:37.157Z,34.47
2022-08-05T12:37:17.450Z,34.62
2022-08-05T12:39:54.641Z,34.66
2022-08-05T12:42:31.353Z,34.61
2022-08-05T12:45:10.652Z,34.43
2022-08-05T12:47:43.500Z,34.49
2022-08-05T12:50:26.270Z,34.30
2022-08-05T12:52:59.737Z,34.52
2022-08-05T12:55:32.756Z,34.49
2022-08-05T12:58:52.625Z,34.40
2022-08-05T13:02:00.324Z,34.35
2022-08-05T13:03:41.933Z,34.27
2022-08-05T13:06:17.975Z,34.09
2022-08-05T13:08:51.412Z,34.19
2022-08-05T13:12:01.113Z,34.25
2022-08-05T13:14:24.776Z,34.16
2022-08-05T13:17:41.254Z,34.09
2022-08-05T13:20:23.439Z,34.31
2022-08-05T13:22:53.788Z,34.43
2022-08-05T13:25:21.922Z,34.16
2022-08-05T13:27:53.195Z,33.93
2022-08-05T13:30:33.834Z,33.72
2022-08-05T13:33:04.522Z,33.66
2022-08-05T13:35:47.073Z,33.57
2022-08-05T13:38:30.958Z,33.52
2022-08-05T13:41:04.005Z,33.54
2022-08-05T13:43:43.546Z,33.46
2022-08-05T13:46:14.249Z,33.49
2022-08-05T13:48:58.128Z,33.44
2022-08-05T13:51:40.434Z,33.42
2022-08-05T13:54:11.716Z,33.53
2022-08-05T13:56:51.499Z,33.50
2022-08-05T13:59:24.060Z,33.45
2022-08-05T14:02:00.064Z,33.47
2022-08-05T14:04:52.737Z,33.36
2022-08-05T14:07:59.476Z,33.24
2022-08-05T14:10:28.008Z,33.16
2022-08-05T14:12:57.460Z,33.14
2022-08-05T14:16:07.236Z,33.06
2022-08-05T14:18:14.730Z,32.90
2022-08-05T14:20:48.131Z,33.10
2022-08-05T14:23:24.509Z,33.10
2022-08-05T14:25:59.004Z,33.10
2022-08-05T14:28:30.942Z,33.10
2022-08-05T14:31:00.409Z,32.97
2022-08-05T14:33:32.600Z,32.84
2022-08-05T14:36:15.905Z,32.77
2022-08-05T14:38:49.917Z,32.67
2022-08-05T14:41:18.665Z,32.61
2022-08-05T14:43:57.753Z,32.72
2022-08-05T14:46:31.488Z,32.58
2022-08-05T14:49:07.592Z,32.63
2022-08-05T14:51:42.874Z,32.59
2022-08-05T14:54:27.746Z,32.61
2022-08-05T14:56:57.473Z,32.55
2022-08-05T14:59:29.518Z,32.43
2022-08-05T15:02:14.642Z,32.41
2022-08-05T15:04:43.267Z,32.41
2022-08-05T15:07:10.651Z,32.35
2022-08-05T15:09:57.927Z,32.23
2022-08-05T15:12:40.890Z,31.99
2022-08-05T15:15:16.333Z,31.94
2022-08-05T15:17:46.685Z,31.94
2022-08-05T15:20:19.319Z,31.85
2022-08-05T15:22:55.083Z,31.70
2022-08-05T15:25:51.406Z,31.70
2022-08-05T15:28:15.013Z,31.66
2022-08-05T15:30:46.859Z,31.68
2022-08-05T15:33:56.705Z,31.73
2022-08-05T15:36:16.900Z,31.62
2022-08-05T15:38:46.608Z,31.48
2022-08-05T15:41:22.059Z,31.33
2022-08-05T15:43:54.660Z,31.20
2022-08-05T15:46:24.027Z,31.14
2022-08-05T15:48:58.738Z,31.04
2022-08-05T15:52:04.324Z,30.94
2022-08-05T15:54:17.886Z,30.92
2022-08-05T15:56:45.235Z,30.98
2022-08-05T15:59:20.199Z,30.83
2022-08-05T16:01:53.423Z,30.66
2022-08-05T16:04:25.456Z,30.63
2022-08-05T16:06:57.049Z,30.65
2022-08-05T16:09:25.835Z,30.55
2022-08-05T16:11:54.361Z,30.45
2022-08-05T16:14:23.065Z,30.39
2022-08-05T16:16:51.203Z,30.34
2022-08-05T16:20:03.472Z,30.28
2022-08-05T16:22:07.054Z,30.06
2022-08-05T16:24:41.021Z,29.97
2022-08-05T16:27:18.389Z,29.86
2022-08-05T16:29:50.997Z,29.76
2022-08-05T16:32:23.447Z,29.69
2022-08-05T16:34:57.568Z,29.52
2022-08-05T16:38:15.436Z,29.37
2022-08-05T16:40:28.802Z,29.20
2022-08-05T16:42:56.437Z,29.12
2022-08-05T16:46:05.963Z,29.00
2022-08-05T16:48:11.068Z,28.84
2022-08-05T16:50:53.472Z,28.71
2022-08-05T16:53:22.894Z,28.60
2022-08-05T16:55:59.376Z,28.49
2022-08-05T16:58:26.902Z,28.40
2022-08-05T17:00:54.448Z,28.28
2022-08-05T17:03:22.437Z,28.18
2022-08-05T17:05:54.328Z,28.11
2022-08-05T17:08:35.864Z,27.95
2022-08-05T17:11:16.929Z,27.80
2022-08-05T17:13:45.958Z,27.69
2022-08-05T17:16:32.614Z,27.61
2022-08-05T17:19:01.515Z,27.41
2022-08-05T17:21:35.804Z,27.27
2022-08-05T17:24:19.600Z,27.15
2022-08-05T17:26:58.266Z,27.01
2022-08-05T17:29:33.523Z,26.88
2022-08-05T17:32:17.521Z,26.72
2022-08-05T17:34:49.203Z,26.59
2022-08-05T17:37:40.020Z,26.44
2022-08-05T17:40:14.500Z,26.21
2022-08-05T17:42:49.860Z,26.09
2022-08-05T17:45:22.061Z,25.89
2022-08-05T17:47:56.084Z,25.78
2022-08-05T17:50:28.341Z,25.62
2022-08-05T17:53:04.642Z,25.53
2022-08-05T17:55:37.235Z,25.40
2022-08-05T17:58:11.169Z,25.23
2022-08-05T18:00:50.678Z,25.08
2022-08-05T18:06:11.863Z,24.68
2022-08-05T18:08:46.220Z,24.50
2022-08-05T18:11:24.457Z,24.41
2022-08-05T18:14:03.191Z,24.34
2022-08-05T18:16:32.757Z,24.25
2022-08-05T18:19:00.289Z,24.11
2022-08-05T18:21:28.147Z,23.95
2022-08-05T18:24:15.691Z,23.84
2022-08-05T18:26:43.795Z,23.73
2022-08-05T18:29:11.366Z,23.70
2022-08-05T18:31:42.998Z,23.66
2022-08-05T18:34:11.960Z,23.56
2022-08-05T18:36:41.295Z,23.50
2022-08-05T18:39:42.094Z,23.46
2022-08-05T18:42:04.682Z,23.46
2022-08-05T18:44:35.568Z,23.40
2022-08-05T18:47:19.174Z,23.32
2022-08-05T18:50:10.511Z,23.22
2022-08-05T18:52:41.839Z,23.23
2022-08-05T18:55:20.343Z,23.30
2022-08-05T18:57:53.201Z,23.48
2022-08-05T19:00:26.979Z,23.59
2022-08-05T19:02:57.542Z,23.46
2022-08-05T19:06:12.543Z,23.17
2022-08-05T19:08:21.521Z,22.98
2022-08-05T19:10:50.531Z,22.84
2022-08-05T19:13:19.770Z,22.71
2022-08-05T19:15:58.713Z,22.61
2022-08-05T19:18:30.919Z,22.49
2022-08-05T19:20:59.826Z,22.45
2022-08-05T19:24:06.717Z,22.37
2022-08-05T19:26:16.846Z,22.28
2022-08-05T19:28:44.576Z,22.26
2022-08-05T19:31:18.013Z,22.17
2022-08-05T19:33:56.272Z,22.09
2022-08-05T19:36:25.833Z,22.06
2022-08-05T19:39:00.798Z,22.07
2022-08-05T19:42:05.756Z,22.05
2022-08-05T19:44:19.480Z,21.96
2022-08-05T19:46:46.965Z,21.85
2022-08-05T19:49:17.227Z,21.86
2022-08-05T19:52:08.710Z,21.83
2022-08-05T19:54:35.547Z,21.82
2022-08-05T19:57:09.476Z,21.73
2022-08-05T19:59:56.308Z,21.69
2022-08-05T20:02:31.462Z,21.66
2022-08-05T20:04:59.856Z,21.62
2022-08-05T20:07:48.370Z,21.56
2022-08-05T20:10:19.255Z,21.50
2022-08-05T20:12:49.659Z,21.46
2022-08-05T20:15:22.928Z,21.40
2022-08-05T20:18:10.792Z,21.41
2022-08-05T20:20:56.181Z,21.41
2022-08-05T20:23:39.750Z,21.34
2022-08-05T20:26:16.116Z,21.31
2022-08-05T20:28:48.069Z,21.32
2022-08-05T20:31:16.716Z,21.29
2022-08-05T20:33:45.305Z,21.25
2022-08-05T20:36:16.297Z,21.34
2022-08-05T20:38:54.478Z,21.34
2022-08-05T20:41:44.347Z,21.33
2022-08-05T20:44:29.770Z,21.23
2022-08-05T20:47:04.190Z,21.25
2022-08-05T20:49:38.102Z,21.20
2022-08-05T20:52:08.841Z,21.15
2022-08-05T20:54:42.847Z,21.08
2022-08-05T20:57:14.182Z,21.00
2022-08-05T21:00:10.227Z,20.91
2022-08-05T21:02:30.003Z,20.88
2022-08-05T21:04:57.661Z,20.89
2022-08-05T21:07:45.731Z,20.85
2022-08-05T21:10:17.253Z,20.80
2022-08-05T21:12:57.722Z,20.79
2022-08-05T21:15:26.165Z,20.68
2022-08-05T21:18:01.370Z,20.63
2022-08-05T21:20:33.295Z,20.60
2022-08-05T21:23:01.351Z,20.61
2022-08-05T21:25:33.815Z,20.58
2022-08-05T21:28:03.336Z,20.49
2022-08-05T21:30:31.737Z,20.51
2022-08-05T21:33:01.829Z,20.55
2022-08-05T21:35:56.085Z,20.50
2022-08-05T21:38:18.092Z,20.41
2022-08-05T21:40:45.500Z,20.40
2022-08-05T21:43:23.994Z,20.42
2022-08-05T21:45:56.954Z,20.34
2022-08-05T21:48:29.036Z,20.33
2022-08-05T21:50:59.464Z,20.32
2022-08-05T21:53:27.329Z,20.27
2022-08-05T21:56:16.228Z,20.24
2022-08-05T21:58:57.258Z,20.21
2022-08-05T22:01:26.358Z,20.18
2022-08-05T22:03:54.495Z,20.12
2022-08-05T22:06:39.584Z,20.09
2022-08-05T22:09:14.782Z,20.09
2022-08-05T22:11:47.030Z,20.07
2022-08-05T22:14:33.247Z,20.04
2022-08-05T22:17:03.760Z,19.98
2022-08-05T22:20:02.126Z,19.99
2022-08-05T22:22:27.117Z,19.96
2022-08-05T22:25:21.137Z,19.95
2022-08-05T22:28:08.439Z,19.96
2022-08-05T22:30:56.850Z,19.92
2022-08-05T22:33:57.025Z,19.90
2022-08-05T22:36:15.415Z,19.90
2022-08-05T22:38:47.932Z,19.90
2022-08-05T22:42:04.692Z,19.85
2022-08-05T22:44:08.411Z,19.83
2022-08-05T22:46:39.512Z,19.76
2022-08-05T22:49:23.578Z,19.69
2022-08-05T22:52:06.401Z,19.65
2022-08-05T22:54:39.136Z,19.61
2022-08-05T22:57:07.462Z,19.62
2022-08-05T22:59:48.411Z,19.67
2022-08-05T23:02:29.355Z,19.68
2022-08-05T23:05:01.991Z,19.68
2022-08-05T23:07:45.120Z,19.65
2022-08-05T23:10:19.881Z,19.58
2022-08-05T23:12:54.646Z,19.53
2022-08-05T23:15:29.839Z,19.54
2022-08-05T23:18:03.318Z,19.51
2022-08-05T23:20:33.139Z,19.46
2022-08-05T23:23:05.742Z,19.50
2022-08-05T23:25:53.571Z,19.44
2022-08-05T23:28:28.900Z,19.40
2022-08-05T23:31:15.703Z,19.60
2022-08-05T23:34:03.856Z,19.96
2022-08-05T23:36:38.686Z,20.09
2022-08-05T23:39:17.174Z,20.32
2022-08-05T23:41:51.921Z,20.47
2022-08-05T23:44:25.020Z,20.53
2022-08-05T23:46:56.048Z,20.46
2022-08-05T23:49:33.907Z,20.45
2022-08-05T23:52:25.075Z,20.52
2022-08-05T23:55:07.082Z,20.77
2022-08-05T23:57:37.194Z,20.97
